Time;durP1;ratioP1;P1;durP2;ratioP2;P2;SDS_P1;SDS_P2;PMS_P1;PMS_P2;Temp;Humidity;BMP_temperature;BMP_pressure;BME280_temperature;BME280_humidity;BME280_pressure;Samples;Min_cycle;Max_cycle;Signal;HPM_P1;HPM_P2
2021/09/28 00:00:09;;;;;;;4.32;1.27;;;13.50;95.00;;;;;;4850721;29;20128;-81
2021/09/28 00:02:34;;;;;;;3.22;1.20;;;13.50;94.90;;;;;;4860543;29;20042;-81
2021/09/28 00:05:00;;;;;;;4.30;1.40;;;13.50;95.00;;;;;;4845922;29;20046;-81
2021/09/28 00:07:26;;;;;;;5.00;1.17;;;13.40;95.00;;;;;;4841564;29;20053;-81
2021/09/28 00:09:51;;;;;;;3.58;1.27;;;13.40;94.90;;;;;;4840776;29;20423;-81
2021/09/28 00:12:18;;;;;;;3.58;1.30;;;13.40;95.00;;;;;;4847242;29;20050;-81
2021/09/28 00:14:44;;;;;;;3.83;1.17;;;13.40;95.00;;;;;;4857283;29;20171;-82
2021/09/28 00:17:10;;;;;;;3.67;1.27;;;13.30;95.00;;;;;;4859373;29;20149;-82
2021/09/28 00:19:36;;;;;;;4.82;1.35;;;13.30;95.00;;;;;;4856994;29;20145;-81
2021/09/28 00:22:02;;;;;;;4.72;1.35;;;13.30;95.10;;;;;;4856029;29;20069;-81
2021/09/28 00:24:28;;;;;;;4.18;1.30;;;13.30;95.20;;;;;;4851334;29;20053;-81
2021/09/28 00:26:54;;;;;;;4.40;1.40;;;13.30;95.30;;;;;;4853727;29;20046;-81
2021/09/28 00:29:19;;;;;;;2.47;1.20;;;13.20;95.40;;;;;;4848462;29;20554;-81
2021/09/28 00:31:45;;;;;;;4.05;1.45;;;13.20;95.30;;;;;;4858217;29;20053;-81
2021/09/28 00:34:10;;;;;;;2.85;1.15;;;13.20;95.30;;;;;;4855001;29;20044;-81
2021/09/28 00:36:36;;;;;;;5.28;1.40;;;13.20;95.40;;;;;;4857683;29;20053;-81
2021/09/28 00:39:02;;;;;;;4.97;1.52;;;13.20;95.40;;;;;;4849228;29;20092;-81
2021/09/28 00:41:27;;;;;;;3.53;1.30;;;13.20;95.20;;;;;;4858849;29;20136;-81
2021/09/28 00:43:54;;;;;;;4.70;1.50;;;13.10;95.20;;;;;;4845057;29;20494;-81
2021/09/28 00:46:24;;;;;;;4.95;1.60;;;13.10;95.20;;;;;;4854811;29;20048;-81
2021/09/28 00:48:51;;;;;;;5.43;1.40;;;13.10;95.40;;;;;;4858026;29;20503;-81
2021/09/28 00:51:18;;;;;;;4.88;1.35;;;13.10;95.40;;;;;;4847600;29;20388;-81
2021/09/28 00:53:45;;;;;;;4.85;1.23;;;13.10;95.30;;;;;;4851472;29;20461;-82
2021/09/28 00:56:15;;;;;;;4.47;1.50;;;13.00;95.30;;;;;;4857397;29;20041;-81
2021/09/28 00:58:41;;;;;;;4.80;1.33;;;13.00;95.30;;;;;;4858846;29;20057;-80
2021/09/28 01:01:08;;;;;;;4.93;1.70;;;13.00;95.10;;;;;;4843789;29;20402;-80
2021/09/28 01:03:34;;;;;;;5.55;1.50;;;13.00;94.90;;;;;;4843520;29;20382;-81
2021/09/28 01:06:00;;;;;;;3.70;1.48;;;12.90;95.00;;;;;;4858231;29;20424;-81
2021/09/28 01:08:27;;;;;;;4.57;1.70;;;12.90;95.30;;;;;;4858868;29;20113;-81
2021/09/28 01:10:54;;;;;;;4.93;1.67;;;12.90;95.10;;;;;;4849122;29;20053;-81
2021/09/28 01:13:23;;;;;;;5.93;1.40;;;12.90;95.10;;;;;;4858923;29;20049;-80
2021/09/28 01:15:58;;;;;;;2.97;1.30;;;12.90;95.00;;;;;;4849000;29;20057;-81
2021/09/28 01:18:28;;;;;;;8.25;1.58;;;12.80;95.00;;;;;;4845438;29;20050;-81
2021/09/28 01:20:53;;;;;;;4.10;1.67;;;12.80;95.20;;;;;;4844442;29;20052;-80
2021/09/28 01:23:19;;;;;;;4.68;1.38;;;12.80;95.50;;;;;;4847618;29;20120;-80
2021/09/28 01:25:45;;;;;;;3.95;1.58;;;12.80;95.20;;;;;;4851115;29;20495;-81
2021/09/28 01:28:10;;;;;;;4.25;1.50;;;12.70;95.30;;;;;;4847355;29;20042;-81
2021/09/28 01:30:36;;;;;;;4.93;1.55;;;12.80;95.30;;;;;;4852418;29;20054;-81
2021/09/28 01:33:02;;;;;;;4.03;1.63;;;12.70;95.30;;;;;;4847504;29;20396;-81
2021/09/28 01:35:28;;;;;;;4.85;1.60;;;12.70;95.10;;;;;;4845222;29;20049;-81
2021/09/28 01:37:54;;;;;;;4.60;1.50;;;12.70;95.30;;;;;;4857005;29;20045;-81
2021/09/28 01:40:19;;;;;;;4.38;1.65;;;12.60;95.10;;;;;;4856037;29;20057;-81
2021/09/28 01:42:45;;;;;;;3.80;1.50;;;12.70;95.00;;;;;;4844801;29;20054;-81
2021/09/28 01:45:11;;;;;;;4.18;1.50;;;12.60;94.80;;;;;;4844841;29;20140;-81
2021/09/28 01:47:36;;;;;;;5.03;1.73;;;12.60;95.00;;;;;;4852707;29;20046;-81
2021/09/28 01:50:03;;;;;;;3.50;1.45;;;12.60;95.10;;;;;;4861506;29;20045;-81
2021/09/28 01:52:29;;;;;;;3.60;1.50;;;12.60;95.10;;;;;;4859989;29;20128;-80
2021/09/28 01:54:55;;;;;;;4.25;1.90;;;12.50;94.90;;;;;;4853857;29;20042;-80
2021/09/28 01:57:20;;;;;;;4.57;1.77;;;12.50;95.00;;;;;;4848164;29;20110;-81
2021/09/28 01:59:46;;;;;;;3.60;1.52;;;12.50;95.10;;;;;;4847327;29;20044;-81
2021/09/28 02:02:11;;;;;;;5.47;1.70;;;12.50;95.00;;;;;;4859477;29;20165;-81
2021/09/28 02:04:37;;;;;;;3.88;1.58;;;12.50;95.50;;;;;;4861495;29;20069;-81
2021/09/28 02:07:03;;;;;;;5.18;1.58;;;12.50;95.10;;;;;;4860168;29;20490;-81
2021/09/28 02:09:28;;;;;;;5.82;2.00;;;12.50;95.20;;;;;;4857170;29;20057;-81
2021/09/28 02:11:54;;;;;;;5.68;2.00;;;12.50;95.30;;;;;;4856144;29;20061;-81
2021/09/28 02:14:21;;;;;;;5.88;1.88;;;12.40;95.30;;;;;;4852002;29;20468;-81
2021/09/28 02:16:47;;;;;;;5.00;1.73;;;12.40;95.30;;;;;;4849008;29;20053;-81
2021/09/28 02:19:13;;;;;;;4.70;1.75;;;12.40;95.30;;;;;;4845753;29;20054;-81
2021/09/28 02:21:38;;;;;;;5.95;1.73;;;12.40;95.40;;;;;;4847686;29;20046;-81
2021/09/28 02:24:04;;;;;;;5.57;1.98;;;12.40;95.20;;;;;;4843067;29;20140;-80
2021/09/28 02:26:30;;;;;;;4.32;1.80;;;12.40;95.20;;;;;;4848493;29;20086;-81
2021/09/28 02:28:55;;;;;;;4.25;1.70;;;12.30;95.20;;;;;;4856000;29;20054;-81
2021/09/28 02:31:21;;;;;;;4.82;1.85;;;12.30;95.20;;;;;;4856049;29;20056;-81
2021/09/28 02:33:47;;;;;;;3.88;1.70;;;12.30;95.20;;;;;;4859787;29;20050;-81
2021/09/28 02:36:12;;;;;;;4.45;1.80;;;12.30;95.30;;;;;;4845547;29;20060;-81
2021/09/28 02:38:39;;;;;;;5.07;2.00;;;12.30;95.30;;;;;;4841817;29;20042;-80
2021/09/28 02:41:05;;;;;;;5.75;1.90;;;12.30;95.30;;;;;;4848902;29;20487;-81
2021/09/28 02:43:30;;;;;;;6.05;2.08;;;12.20;95.10;;;;;;4842773;29;20566;-81
2021/09/28 02:45:56;;;;;;;4.88;1.77;;;12.20;95.00;;;;;;4844639;29;20136;-81
2021/09/28 02:48:21;;;;;;;5.47;2.15;;;12.20;94.90;;;;;;4861304;29;20059;-81
2021/09/28 02:50:47;;;;;;;4.10;2.03;;;12.20;95.00;;;;;;4859598;29;20053;-81
2021/09/28 02:53:13;;;;;;;5.93;2.15;;;12.10;95.20;;;;;;4850823;29;20154;-81
2021/09/28 02:55:39;;;;;;;5.07;2.10;;;12.10;95.20;;;;;;4847490;29;20084;-81
2021/09/28 02:58:05;;;;;;;6.03;2.22;;;12.10;95.20;;;;;;4858739;29;20054;-81
2021/09/28 03:00:31;;;;;;;7.07;2.15;;;12.10;95.20;;;;;;4860572;29;20055;-81
2021/09/28 03:02:56;;;;;;;4.63;1.92;;;12.10;95.10;;;;;;4854835;29;20046;-81
2021/09/28 03:05:22;;;;;;;6.57;2.17;;;12.10;95.20;;;;;;4851531;29;20065;-81
2021/09/28 03:07:47;;;;;;;6.13;2.00;;;12.10;95.30;;;;;;4854546;29;20053;-81
2021/09/28 03:10:13;;;;;;;5.45;2.13;;;12.00;95.20;;;;;;4859895;29;20068;-81
2021/09/28 03:12:38;;;;;;;5.25;2.20;;;12.00;95.20;;;;;;4855492;29;20042;-81
2021/09/28 03:15:05;;;;;;;6.30;2.03;;;12.00;95.30;;;;;;4851722;29;20053;-81
2021/09/28 03:17:31;;;;;;;6.22;2.03;;;12.00;95.30;;;;;;4850840;29;20053;-81
2021/09/28 03:19:56;;;;;;;7.18;2.30;;;11.90;95.30;;;;;;4857065;29;20045;-81
2021/09/28 03:22:22;;;;;;;6.32;2.20;;;11.90;95.10;;;;;;4853546;29;20102;-80
2021/09/28 03:24:47;;;;;;;5.68;2.17;;;11.90;95.00;;;;;;4857456;29;20129;-80
2021/09/28 03:27:13;;;;;;;5.68;2.25;;;11.90;95.20;;;;;;4846940;29;20129;-80
2021/09/28 03:29:39;;;;;;;5.22;2.00;;;11.90;95.40;;;;;;4858216;29;20059;-81
2021/09/28 03:32:05;;;;;;;4.95;2.20;;;11.90;95.40;;;;;;4853774;29;20057;-80
2021/09/28 03:34:30;;;;;;;5.22;2.08;;;11.90;95.30;;;;;;4852109;29;20056;-80
2021/09/28 03:36:56;;;;;;;7.88;2.40;;;11.90;95.20;;;;;;4845106;29;20128;-80
2021/09/28 03:39:21;;;;;;;6.43;2.17;;;11.90;95.10;;;;;;4859663;29;20092;-81
2021/09/28 03:41:48;;;;;;;5.40;2.40;;;11.90;95.20;;;;;;4851977;29;20057;-81
2021/09/28 03:44:14;;;;;;;5.82;2.30;;;11.90;95.30;;;;;;4859790;29;20049;-81
2021/09/28 03:46:39;;;;;;;5.65;2.05;;;11.90;95.30;;;;;;4853769;29;20054;-81
2021/09/28 03:49:05;;;;;;;7.53;2.40;;;11.90;95.40;;;;;;4840994;29;20049;-81
2021/09/28 03:51:31;;;;;;;7.55;2.30;;;11.90;95.30;;;;;;4849158;29;20073;-80
2021/09/28 03:53:56;;;;;;;5.22;2.40;;;11.80;95.30;;;;;;4848089;29;20040;-80
2021/09/28 03:56:22;;;;;;;8.45;2.53;;;11.80;95.40;;;;;;4849676;29;20110;-80
2021/09/28 03:58:48;;;;;;;7.10;2.40;;;11.80;95.50;;;;;;4842411;29;20423;-80
2021/09/28 04:01:14;;;;;;;8.45;2.40;;;11.80;95.40;;;;;;4844629;29;20052;-81
2021/09/28 04:03:41;;;;;;;11.23;2.55;;;11.80;95.40;;;;;;4858107;29;20479;-81
2021/09/28 04:06:07;;;;;;;5.75;2.20;;;11.80;95.30;;;;;;4851404;29;20050;-80
2021/09/28 04:08:32;;;;;;;5.55;2.30;;;11.80;95.10;;;;;;4841403;29;20078;-81
2021/09/28 04:10:58;;;;;;;6.07;2.25;;;11.80;95.10;;;;;;4854193;29;20525;-80
2021/09/28 04:13:24;;;;;;;8.02;2.50;;;11.70;95.00;;;;;;4858855;29;20057;-81
2021/09/28 04:15:52;;;;;;;7.65;2.60;;;11.80;95.10;;;;;;4858773;29;20044;-81
2021/09/28 04:18:17;;;;;;;8.55;2.45;;;11.80;95.30;;;;;;4852572;29;20524;-81
2021/09/28 04:20:44;;;;;;;8.77;2.45;;;11.70;95.40;;;;;;4858173;29;20037;-81
2021/09/28 04:23:12;;;;;;;8.63;2.50;;;11.70;95.40;;;;;;4842509;29;20453;-81
2021/09/28 04:25:39;;;;;;;5.97;2.40;;;11.70;95.40;;;;;;4856042;29;20053;-80
2021/09/28 04:28:04;;;;;;;10.15;2.85;;;11.70;95.30;;;;;;4843654;29;20064;-81
2021/09/28 04:30:30;;;;;;;5.10;2.38;;;11.70;95.40;;;;;;4852951;29;20042;-81
2021/09/28 04:32:56;;;;;;;6.32;2.40;;;11.70;95.40;;;;;;4859276;29;20049;-81
2021/09/28 04:35:22;;;;;;;6.82;2.47;;;11.70;95.10;;;;;;4855155;29;20105;-81
2021/09/28 04:37:47;;;;;;;11.90;3.47;;;11.60;95.10;;;;;;4849860;29;20051;-80
2021/09/28 04:40:13;;;;;;;8.55;2.85;;;11.60;95.10;;;;;;4847333;29;20048;-81
2021/09/28 04:42:39;;;;;;;6.65;2.70;;;11.60;95.10;;;;;;4841967;29;20447;-81
2021/09/28 04:45:06;;;;;;;7.05;2.63;;;11.60;95.10;;;;;;4850392;29;20047;-80
2021/09/28 04:47:32;;;;;;;7.05;2.50;;;11.60;95.10;;;;;;4856672;29;20398;-81
2021/09/28 04:49:57;;;;;;;6.97;2.45;;;11.60;94.90;;;;;;4855054;29;20053;-81
2021/09/28 04:52:23;;;;;;;7.97;2.58;;;11.60;95.00;;;;;;4847435;29;20046;-80
2021/09/28 04:54:49;;;;;;;9.45;3.05;;;11.60;95.10;;;;;;4844376;29;20138;-80
2021/09/28 04:57:15;;;;;;;9.27;2.65;;;11.60;95.10;;;;;;4861024;29;20050;-80
2021/09/28 04:59:40;;;;;;;6.47;2.53;;;11.50;95.00;;;;;;4857952;29;20078;-80
2021/09/28 05:02:06;;;;;;;8.38;2.83;;;11.60;95.10;;;;;;4854808;29;20377;-80
2021/09/28 05:04:31;;;;;;;7.82;2.80;;;11.50;95.00;;;;;;4849868;29;20046;-81
2021/09/28 05:06:57;;;;;;;7.40;2.78;;;11.60;95.10;;;;;;4833870;29;20061;-80
2021/09/28 05:09:23;;;;;;;5.85;2.58;;;11.60;95.20;;;;;;4861117;29;20149;-81
2021/09/28 05:11:51;;;;;;;7.38;2.50;;;11.60;95.20;;;;;;4860757;29;20056;-81
2021/09/28 05:14:17;;;;;;;7.53;2.63;;;11.60;95.40;;;;;;4862325;29;20061;-81
2021/09/28 05:16:43;;;;;;;6.05;2.95;;;11.60;95.30;;;;;;4856220;29;20037;-81
2021/09/28 05:19:08;;;;;;;5.97;2.63;;;11.50;95.40;;;;;;4861664;29;20049;-80
2021/09/28 05:21:34;;;;;;;9.13;2.65;;;11.60;95.50;;;;;;4859822;29;20049;-79
2021/09/28 05:24:00;;;;;;;9.02;2.80;;;11.60;95.30;;;;;;4853083;29;20526;-81
2021/09/28 05:26:26;;;;;;;7.55;2.78;;;11.60;95.30;;;;;;4856034;29;20125;-79
2021/09/28 05:28:51;;;;;;;9.90;2.90;;;11.60;95.30;;;;;;4862932;29;20482;-80
2021/09/28 05:31:17;;;;;;;6.53;2.78;;;11.60;95.20;;;;;;4849826;29;20076;-84
2021/09/28 05:33:43;;;;;;;6.47;2.60;;;11.60;95.30;;;;;;4843354;29;20543;-84
2021/09/28 05:36:09;;;;;;;9.70;2.70;;;11.60;95.50;;;;;;4844430;29;20513;-84
2021/09/28 05:38:35;;;;;;;6.55;2.80;;;11.50;95.30;;;;;;4843833;29;20053;-85
2021/09/28 05:41:06;;;;;;;6.38;2.63;;;11.50;95.40;;;;;;4852876;29;20106;-82
2021/09/28 05:43:33;;;;;;;7.10;2.75;;;11.60;95.40;;;;;;4856496;29;20050;-83
2021/09/28 05:45:59;;;;;;;6.55;3.00;;;11.50;95.40;;;;;;4854434;29;20467;-81
2021/09/28 05:48:24;;;;;;;6.70;2.80;;;11.50;95.50;;;;;;4857100;29;20144;-81
2021/09/28 05:50:50;;;;;;;6.60;2.53;;;11.50;95.50;;;;;;4852314;29;20045;-81
2021/09/28 05:53:15;;;;;;;6.57;2.65;;;11.50;95.50;;;;;;4855785;29;20144;-80
2021/09/28 05:55:42;;;;;;;6.97;3.00;;;11.50;95.30;;;;;;4848841;29;20057;-80
2021/09/28 05:58:07;;;;;;;6.63;2.80;;;11.50;95.40;;;;;;4846016;29;20102;-79
2021/09/28 06:00:33;;;;;;;7.07;2.85;;;11.50;95.50;;;;;;4852741;29;20046;-80
2021/09/28 06:02:58;;;;;;;7.13;2.47;;;11.50;95.30;;;;;;4860865;29;20049;-80
2021/09/28 06:05:24;;;;;;;7.85;2.88;;;11.40;95.20;;;;;;4856682;29;20121;-81
2021/09/28 06:07:50;;;;;;;7.18;2.90;;;11.40;95.10;;;;;;4851857;29;20073;-81
2021/09/28 06:10:16;;;;;;;7.20;2.90;;;11.40;95.00;;;;;;4875499;29;20045;-81
2021/09/28 06:12:42;;;;;;;7.40;3.17;;;11.40;94.90;;;;;;4854311;29;20069;-80
2021/09/28 06:15:08;;;;;;;8.48;3.10;;;11.40;95.30;;;;;;4856280;29;20053;-80
2021/09/28 06:17:34;;;;;;;7.65;2.90;;;11.40;95.00;;;;;;4852432;29;20081;-80
2021/09/28 06:19:59;;;;;;;7.80;3.10;;;11.40;95.20;;;;;;4856273;29;20084;-80
2021/09/28 06:22:25;;;;;;;6.72;3.10;;;11.40;95.20;;;;;;4850890;29;20049;-80
2021/09/28 06:24:55;;;;;;;7.53;3.30;;;11.40;95.20;;;;;;4857307;29;20053;-80
2021/09/28 06:27:22;;;;;;;10.15;3.63;;;11.40;95.30;;;;;;4856755;29;20057;-80
2021/09/28 06:29:47;;;;;;;5.55;2.80;;;11.40;95.40;;;;;;4850674;29;20049;-80
2021/09/28 06:32:13;;;;;;;7.43;2.90;;;11.40;95.30;;;;;;4849157;29;20060;-80
2021/09/28 06:34:39;;;;;;;7.38;3.10;;;11.40;95.40;;;;;;4857608;29;20044;-80
2021/09/28 06:37:05;;;;;;;6.63;3.28;;;11.40;95.40;;;;;;4860881;29;20567;-80
2021/09/28 06:39:31;;;;;;;6.47;3.33;;;11.40;95.30;;;;;;4857664;29;20056;-81
2021/09/28 06:41:56;;;;;;;12.35;4.22;;;11.40;95.40;;;;;;4850841;29;20161;-80
2021/09/28 06:44:22;;;;;;;8.18;3.40;;;11.40;95.40;;;;;;4847182;29;20055;-80
2021/09/28 06:46:47;;;;;;;8.57;3.70;;;11.40;95.40;;;;;;4859759;29;20136;-81
2021/09/28 06:49:13;;;;;;;12.80;4.63;;;11.40;95.40;;;;;;4859649;29;20494;-80
2021/09/28 06:51:39;;;;;;;6.30;3.05;;;11.40;95.40;;;;;;4851472;29;20087;-80
2021/09/28 06:54:04;;;;;;;16.08;5.28;;;11.50;95.50;;;;;;4857638;29;20059;-80
2021/09/28 06:56:30;;;;;;;14.75;4.93;;;11.50;95.60;;;;;;4856002;29;20156;-80
2021/09/28 06:58:57;;;;;;;7.90;3.65;;;11.50;95.80;;;;;;4849625;29;20052;-79
2021/09/28 07:01:22;;;;;;;15.32;5.28;;;11.60;95.80;;;;;;4853482;29;20061;-81
2021/09/28 07:03:48;;;;;;;13.13;4.95;;;11.60;95.80;;;;;;4856302;29;20117;-82
2021/09/28 07:06:14;;;;;;;16.35;5.90;;;11.60;95.90;;;;;;4859543;29;20428;-81
2021/09/28 07:08:39;;;;;;;10.50;4.10;;;11.70;96.00;;;;;;4872662;29;20045;-81
2021/09/28 07:11:05;;;;;;;9.98;4.60;;;11.70;96.00;;;;;;4858632;29;20543;-80
2021/09/28 07:13:30;;;;;;;18.58;6.57;;;11.70;96.00;;;;;;4854713;29;20395;-80
2021/09/28 07:15:56;;;;;;;9.07;3.83;;;11.80;96.10;;;;;;4856739;29;20101;-81
2021/09/28 07:18:22;;;;;;;19.10;6.90;;;11.80;96.00;;;;;;4849454;29;20136;-80
2021/09/28 07:20:47;;;;;;;13.43;4.82;;;11.80;96.20;;;;;;4856512;29;20041;-81
2021/09/28 07:23:13;;;;;;;16.05;6.30;;;11.90;96.20;;;;;;4848328;29;20542;-81
2021/09/28 07:25:39;;;;;;;18.30;6.55;;;12.00;96.20;;;;;;4853676;29;20523;-80
2021/09/28 07:28:05;;;;;;;12.00;4.95;;;12.00;96.40;;;;;;4858884;29;20057;-81
2021/09/28 07:30:32;;;;;;;16.42;5.32;;;12.10;96.30;;;;;;4870901;29;20384;-80
2021/09/28 07:32:59;;;;;;;16.00;6.40;;;12.10;96.20;;;;;;4870435;29;20054;-81
2021/09/28 07:35:25;;;;;;;12.15;4.38;;;12.20;96.30;;;;;;4852618;29;20499;-81
2021/09/28 07:37:51;;;;;;;18.25;6.40;;;12.20;96.30;;;;;;4852986;29;20042;-81
2021/09/28 07:40:17;;;;;;;11.05;4.90;;;12.30;96.30;;;;;;4871292;29;20041;-81
2021/09/28 07:42:44;;;;;;;12.98;5.55;;;12.30;96.30;;;;;;4850210;29;20058;-81
2021/09/28 07:45:10;;;;;;;17.35;6.15;;;12.40;96.20;;;;;;4872744;29;21789;-81
2021/09/28 07:47:36;;;;;;;13.48;5.38;;;12.40;96.20;;;;;;4847356;29;20051;-81
2021/09/28 07:50:03;;;;;;;11.35;5.47;;;12.50;96.20;;;;;;4851922;29;20049;-81
2021/09/28 07:52:29;;;;;;;19.95;7.25;;;12.60;96.10;;;;;;4850704;29;20057;-82
2021/09/28 07:54:54;;;;;;;17.10;6.05;;;12.60;96.20;;;;;;4869736;29;20082;-81
2021/09/28 07:57:20;;;;;;;18.45;6.80;;;12.70;96.20;;;;;;4856896;29;20443;-82
2021/09/28 07:59:46;;;;;;;19.80;5.38;;;12.80;96.30;;;;;;4854873;29;20045;-83
2021/09/28 08:02:11;;;;;;;12.20;4.60;;;12.80;96.60;;;;;;4857177;29;20125;-82
2021/09/28 08:04:41;;;;;;;11.32;4.93;;;12.90;96.20;;;;;;4857905;29;20080;-84
2021/09/28 08:07:12;;;;;;;15.27;5.60;;;13.00;96.20;;;;;;4854455;29;20111;-83
2021/09/28 08:09:38;;;;;;;17.58;5.55;;;13.00;96.10;;;;;;4849902;29;20062;-82
2021/09/28 08:12:05;;;;;;;18.38;6.20;;;13.10;96.10;;;;;;4845044;29;20063;-82
2021/09/28 08:14:30;;;;;;;13.52;5.03;;;13.20;96.20;;;;;;4847716;29;21924;-82
2021/09/28 08:16:56;;;;;;;17.17;6.30;;;13.30;96.20;;;;;;4847215;29;20136;-82
2021/09/28 08:19:21;;;;;;;14.48;5.55;;;13.30;96.20;;;;;;4852351;29;20054;-83
2021/09/28 08:21:47;;;;;;;14.00;4.90;;;13.40;96.20;;;;;;4848486;29;20046;-82
2021/09/28 08:24:12;;;;;;;16.60;5.43;;;13.50;96.10;;;;;;4853293;29;20514;-83
2021/09/28 08:29:22;;;;;;;15.02;5.55;;;13.70;96.10;;;;;;4856942;29;20558;-81
2021/09/28 08:31:48;;;;;;;15.63;5.60;;;13.80;96.00;;;;;;4878413;29;20135;-82
2021/09/28 08:34:16;;;;;;;10.57;4.80;;;13.90;96.10;;;;;;4861430;29;20492;-82
2021/09/28 08:36:42;;;;;;;13.85;4.70;;;13.90;96.00;;;;;;4862239;29;20514;-82
2021/09/28 08:39:12;;;;;;;18.27;5.22;;;14.00;95.90;;;;;;4855599;29;20076;-82
2021/09/28 08:41:43;;;;;;;13.55;4.72;;;14.10;95.90;;;;;;4855434;29;20403;-83
2021/09/28 08:44:09;;;;;;;17.20;4.82;;;14.20;95.80;;;;;;4852930;29;20050;-82
2021/09/28 08:46:34;;;;;;;16.45;5.40;;;14.30;95.80;;;;;;4862286;29;20052;-82
2021/09/28 08:49:00;;;;;;;13.30;4.55;;;14.30;95.60;;;;;;4861252;29;20053;-81
2021/09/28 08:51:27;;;;;;;12.80;4.30;;;14.40;95.50;;;;;;4861404;29;20138;-82
2021/09/28 08:53:52;;;;;;;12.75;4.22;;;14.50;95.50;;;;;;4853746;29;20050;-81
2021/09/28 08:56:20;;;;;;;15.90;4.53;;;14.60;95.40;;;;;;4862718;29;20052;-82
2021/09/28 08:58:55;;;;;;;16.55;4.40;;;14.70;95.30;;;;;;4857632;29;20047;-82
2021/09/28 09:26:21;;;;;;;17.23;3.75;;;15.10;95.00;;;;;;5110003;27;1216354;-83
2021/09/28 09:28:48;;;;;;;15.60;3.70;;;15.50;94.80;;;;;;5110657;28;20482;-83
2021/09/28 09:33:40;;;;;;;16.17;4.07;;;15.70;94.30;;;;;;5272198;22;20119;-81
2021/09/28 09:36:08;;;;;;;16.25;4.00;;;15.80;94.60;;;;;;5048346;28;20041;-81
2021/09/28 09:38:52;;;;;;;18.90;4.05;;;15.80;94.10;;;;;;5047524;28;20140;-83
2021/09/28 09:41:18;;;;;;;16.33;3.95;;;15.90;94.00;;;;;;5051333;28;20193;-83
2021/09/28 09:43:48;;;;;;;11.38;3.35;;;16.10;94.00;;;;;;5047934;28;20076;-82
2021/09/28 09:46:18;;;;;;;16.10;4.32;;;16.10;94.00;;;;;;5066474;28;20051;-83
2021/09/28 09:48:45;;;;;;;11.73;3.75;;;16.20;94.00;;;;;;5050275;28;20378;-83
2021/09/28 09:51:22;;;;;;;16.52;3.70;;;16.30;93.70;;;;;;5047952;28;20049;-83
2021/09/28 09:53:58;;;;;;;15.00;3.53;;;16.40;93.20;;;;;;5050870;28;20055;-84
2021/09/28 09:56:45;;;;;;;16.13;3.60;;;16.50;93.50;;;;;;5049718;28;20046;-83
2021/09/28 09:59:12;;;;;;;18.60;3.22;;;16.50;92.80;;;;;;5064115;28;20563;-84
2021/09/28 10:01:38;;;;;;;15.73;3.20;;;16.60;92.80;;;;;;5049924;28;20047;-83
2021/09/28 10:04:08;;;;;;;15.07;3.20;;;16.70;92.50;;;;;;5048010;28;20045;-84
2021/09/28 10:06:34;;;;;;;18.85;3.42;;;16.80;92.20;;;;;;5047522;28;20045;-84
2021/09/28 10:09:05;;;;;;;18.27;3.35;;;16.80;92.10;;;;;;5048004;28;20049;-84
2021/09/28 10:11:36;;;;;;;15.27;3.20;;;16.90;92.00;;;;;;5051536;28;20166;-84
2021/09/28 10:14:03;;;;;;;14.00;3.20;;;17.00;92.10;;;;;;5050781;28;20477;-83
2021/09/28 10:16:38;;;;;;;13.40;3.00;;;17.10;92.40;;;;;;5050848;28;20045;-83
2021/09/28 10:19:23;;;;;;;10.30;2.67;;;17.10;91.80;;;;;;5050264;28;20099;-84
2021/09/28 10:21:49;;;;;;;15.85;3.17;;;17.20;92.00;;;;;;5044798;28;20049;-85
2021/09/28 10:24:18;;;;;;;14.75;3.03;;;17.20;92.10;;;;;;5047580;28;20087;-84
2021/09/28 10:26:44;;;;;;;12.63;2.70;;;17.30;91.70;;;;;;5039154;28;20049;-84
2021/09/28 10:53:22;;;;;;;11.02;2.17;;;17.90;90.90;;;;;;4821124;29;20049;-85
2021/09/28 11:07:35;;;;;;;11.40;1.92;;;18.30;89.30;;;;;;4732202;30;20054;-87
2021/09/28 11:13:43;;;;;;;13.10;2.42;;;18.40;87.20;;;;;;4750559;29;20047;-84
2021/09/28 11:16:11;;;;;;;13.35;2.30;;;18.50;86.40;;;;;;4856024;29;20057;-85
2021/09/28 11:18:51;;;;;;;13.65;1.90;;;18.60;86.00;;;;;;4942106;28;20085;-85
2021/09/28 11:21:20;;;;;;;12.68;2.22;;;18.70;85.30;;;;;;4960845;28;20050;-86
2021/09/28 11:27:10;;;;;;;13.20;2.13;;;18.80;84.70;;;;;;5198100;23;20061;-86
2021/09/28 11:29:36;;;;;;;13.68;2.13;;;18.80;85.00;;;;;;4981400;28;20050;-87
2021/09/28 11:32:04;;;;;;;9.15;1.83;;;18.90;84.50;;;;;;4971222;28;20046;-85
2021/09/28 11:34:37;;;;;;;14.13;2.25;;;19.00;84.00;;;;;;4976067;28;20042;-86
2021/09/28 11:37:04;;;;;;;8.63;2.03;;;19.00;85.20;;;;;;4990983;28;20051;-86
2021/09/28 11:39:37;;;;;;;11.55;1.80;;;19.10;84.70;;;;;;4981437;28;20081;-87
2021/09/28 11:42:03;;;;;;;9.25;2.13;;;19.10;83.30;;;;;;4977511;28;20046;-86
2021/09/28 11:44:42;;;;;;;9.68;1.95;;;19.10;84.60;;;;;;4976723;28;20121;-85
2021/09/28 11:47:12;;;;;;;13.85;2.10;;;19.20;81.90;;;;;;4975119;28;20042;-84
2021/09/28 11:49:52;;;;;;;13.30;2.03;;;19.20;82.20;;;;;;4977121;28;20053;-84
2021/09/28 11:52:23;;;;;;;14.40;2.20;;;19.30;81.00;;;;;;4975798;28;20041;-85
2021/09/28 12:01:46;;;;;;;10.63;1.88;;;19.40;82.00;;;;;;4914458;29;19951;-84
2021/09/28 12:07:08;;;;;;;12.68;2.20;;;19.50;80.80;;;;;;4899887;29;20098;-84
2021/09/28 12:09:39;;;;;;;10.98;2.08;;;19.50;83.10;;;;;;4899480;29;20080;-84
2021/09/28 12:12:15;;;;;;;8.02;1.40;;;19.50;82.50;;;;;;4920906;28;20054;-84
2021/09/28 12:14:46;;;;;;;11.88;1.77;;;19.50;82.90;;;;;;4975058;28;20057;-84
2021/09/28 12:17:23;;;;;;;9.38;2.03;;;19.60;83.10;;;;;;4992293;28;20035;-84
2021/09/28 12:19:54;;;;;;;12.57;1.77;;;19.60;81.90;;;;;;4991639;28;20050;-84
2021/09/28 12:22:39;;;;;;;10.90;1.80;;;19.60;79.00;;;;;;4975629;28;20065;-84
2021/09/28 12:25:08;;;;;;;9.85;1.60;;;19.60;77.00;;;;;;4976367;28;20050;-84
2021/09/28 12:27:35;;;;;;;12.55;1.80;;;19.60;77.90;;;;;;4974966;28;20045;-84
2021/09/28 12:30:08;;;;;;;13.60;1.90;;;19.60;78.00;;;;;;4976745;28;20038;-84
2021/09/28 12:32:34;;;;;;;11.32;1.85;;;19.60;77.10;;;;;;4992789;28;20514;-84
2021/09/28 12:35:06;;;;;;;11.13;1.92;;;19.70;79.00;;;;;;4974976;28;20073;-84
2021/09/28 12:37:47;;;;;;;10.77;1.92;;;19.70;78.90;;;;;;4979855;28;20070;-83
2021/09/28 12:40:16;;;;;;;11.25;1.77;;;19.70;77.10;;;;;;4976144;28;20038;-85
2021/09/28 12:42:43;;;;;;;14.80;2.47;;;19.70;78.90;;;;;;4972301;28;20046;-85
2021/09/28 12:45:15;;;;;;;13.82;1.90;;;19.70;78.40;;;;;;4976722;28;20065;-87
2021/09/28 12:47:56;;;;;;;13.93;2.20;;;19.70;77.80;;;;;;4976330;28;20046;-85
2021/09/28 12:50:28;;;;;;;11.93;2.13;;;19.80;78.80;;;;;;4961509;28;20039;-86
2021/09/28 12:53:05;;;;;;;10.23;1.77;;;19.80;77.90;;;;;;4975493;28;20499;-86
2021/09/28 12:55:38;;;;;;;12.57;2.25;;;19.80;77.90;;;;;;4976130;28;20437;-86
2021/09/28 12:58:09;;;;;;;11.07;2.08;;;19.80;76.90;;;;;;4976995;28;20054;-87
2021/09/28 13:00:36;;;;;;;9.85;1.80;;;19.80;79.80;;;;;;4976284;28;20043;-86
2021/09/28 13:03:05;;;;;;;10.65;1.90;;;19.90;80.20;;;;;;4976017;28;20494;-86
2021/09/28 13:05:32;;;;;;;10.18;1.90;;;19.90;81.00;;;;;;4993548;28;20565;-87
2021/09/28 13:07:59;;;;;;;10.15;2.03;;;20.00;79.40;;;;;;4976365;28;20495;-86
2021/09/28 13:12:56;;;;;;;11.45;1.52;;;20.00;79.50;;;;;;4937584;29;20769;-86
2021/09/28 13:17:56;;;;;;;10.05;1.75;;;20.10;80.20;;;;;;5069679;23;20068;-85
2021/09/28 13:20:25;;;;;;;11.38;1.90;;;20.10;78.30;;;;;;5006869;28;20045;-86
2021/09/28 13:22:50;;;;;;;11.18;2.10;;;20.00;76.80;;;;;;5010594;28;20049;-84
2021/09/28 13:25:16;;;;;;;13.65;2.22;;;20.00;75.40;;;;;;5003968;28;20045;-84
2021/09/28 13:27:41;;;;;;;11.20;1.90;;;20.00;75.30;;;;;;5028916;28;20043;-85
2021/09/28 13:30:08;;;;;;;9.88;1.90;;;20.00;75.70;;;;;;5007755;28;20050;-85
2021/09/28 13:32:34;;;;;;;10.15;1.80;;;19.90;78.50;;;;;;5003718;28;20041;-84
2021/09/28 13:35:00;;;;;;;10.82;2.00;;;20.00;79.80;;;;;;5011427;28;20038;-84
2021/09/28 13:37:29;;;;;;;9.40;1.90;;;20.00;78.20;;;;;;5003749;28;20433;-86
2021/09/28 13:39:55;;;;;;;8.30;1.85;;;19.90;77.10;;;;;;5004572;28;20061;-85
2021/09/28 13:42:21;;;;;;;7.97;1.40;;;19.90;80.00;;;;;;5029150;28;20042;-86
2021/09/28 13:44:47;;;;;;;11.10;1.95;;;20.00;81.20;;;;;;5011248;28;20432;-86
2021/09/28 13:47:12;;;;;;;8.82;1.30;;;20.00;78.60;;;;;;5006732;28;20124;-86
2021/09/28 13:49:38;;;;;;;10.95;1.88;;;19.90;78.50;;;;;;5011254;28;20512;-86
2021/09/28 13:52:06;;;;;;;9.70;1.52;;;20.00;79.80;;;;;;5007669;28;20046;-85
2021/09/28 13:54:35;;;;;;;10.82;1.60;;;20.00;79.10;;;;;;5030989;28;20049;-84
2021/09/28 13:57:01;;;;;;;13.43;1.90;;;20.10;80.00;;;;;;5013206;28;20049;-86
2021/09/28 13:59:27;;;;;;;9.95;1.70;;;20.10;77.90;;;;;;5011195;28;20121;-84
2021/09/28 14:01:52;;;;;;;9.00;1.60;;;20.10;77.40;;;;;;5011673;28;20132;-84
2021/09/28 14:04:18;;;;;;;10.27;2.05;;;20.10;77.10;;;;;;5022634;28;20049;-84
2021/09/28 14:06:44;;;;;;;9.98;1.50;;;20.10;77.90;;;;;;5008433;28;20049;-83
2021/09/28 14:09:09;;;;;;;9.63;1.77;;;20.10;79.40;;;;;;5008118;28;20042;-84